createdAt,value
2023-05-14T00:01:30.750Z,10.00
2023-05-14T00:03:58.630Z,11.20
2023-05-14T00:06:26.425Z,9.85
2023-05-14T00:08:54.031Z,8.60
2023-05-14T00:11:21.595Z,11.90
2023-05-14T00:13:50.383Z,12.00
2023-05-14T00:16:17.924Z,8.98
2023-05-14T00:18:45.491Z,10.35
2023-05-14T00:21:13.237Z,10.32
2023-05-14T00:23:40.833Z,10.13
2023-05-14T00:26:08.499Z,10.25
2023-05-14T00:28:35.995Z,13.55
2023-05-14T00:31:03.721Z,10.48
2023-05-14T00:33:31.434Z,10.52
2023-05-14T00:35:58.856Z,10.75
2023-05-14T00:38:28.646Z,10.95
2023-05-14T00:40:56.339Z,8.35
2023-05-14T00:43:24.115Z,9.45
2023-05-14T00:45:53.461Z,9.25
2023-05-14T00:48:21.960Z,10.20
2023-05-14T00:50:51.135Z,14.02
2023-05-14T00:53:19.523Z,11.20
2023-05-14T00:55:49.009Z,12.45
2023-05-14T00:58:17.988Z,11.60
2023-05-14T01:00:46.188Z,11.27
2023-05-14T01:03:13.722Z,11.10
2023-05-14T01:05:54.814Z,10.45
2023-05-14T01:08:33.913Z,11.55
2023-05-14T01:11:11.667Z,10.90
2023-05-14T01:13:50.406Z,8.82
2023-05-14T01:16:20.096Z,11.50
2023-05-14T01:18:51.792Z,9.05
2023-05-14T01:21:35.007Z,9.98
2023-05-14T01:24:02.516Z,9.27
2023-05-14T01:26:31.426Z,10.70
2023-05-14T01:29:08.447Z,10.68
2023-05-14T01:31:39.146Z,11.55
2023-05-14T01:34:08.093Z,12.68
2023-05-14T01:36:36.149Z,10.85
2023-05-14T01:39:04.032Z,11.35
2023-05-14T01:41:32.981Z,9.02
2023-05-14T01:44:01.802Z,7.95
2023-05-14T01:46:33.783Z,12.20
2023-05-14T01:49:01.410Z,9.50
2023-05-14T01:51:29.352Z,10.55
2023-05-14T01:53:56.883Z,8.05
2023-05-14T01:56:25.954Z,9.75
2023-05-14T01:58:53.993Z,13.25
2023-05-14T02:01:21.967Z,11.75
2023-05-14T02:03:49.658Z,8.82
2023-05-14T02:06:17.218Z,12.10
2023-05-14T02:08:44.674Z,9.65
2023-05-14T02:11:12.164Z,12.05
2023-05-14T02:13:39.860Z,11.07
2023-05-14T02:16:07.599Z,11.52
2023-05-14T02:18:35.189Z,11.95
2023-05-14T02:21:02.781Z,10.70
2023-05-14T02:23:40.374Z,11.13
2023-05-14T02:26:10.652Z,12.07
2023-05-14T02:28:38.413Z,13.00
2023-05-14T02:31:06.183Z,18.02
2023-05-14T02:33:33.941Z,10.82
2023-05-14T02:36:01.427Z,12.65
2023-05-14T02:38:28.916Z,16.98
2023-05-14T02:40:57.303Z,10.80
2023-05-14T02:43:24.782Z,12.50
2023-05-14T02:45:52.813Z,11.68
2023-05-14T02:48:20.408Z,13.50
2023-05-14T02:50:49.946Z,12.82
2023-05-14T02:53:17.566Z,12.07
2023-05-14T02:55:45.057Z,13.07
2023-05-14T02:58:12.640Z,9.90
2023-05-14T03:00:40.459Z,11.10
2023-05-14T03:03:08.738Z,11.05
2023-05-14T03:05:36.941Z,10.43
2023-05-14T03:08:05.426Z,9.43
2023-05-14T03:10:33.137Z,10.75
2023-05-14T03:13:00.656Z,13.57
2023-05-14T03:15:28.167Z,12.07
2023-05-14T03:17:56.234Z,11.38
2023-05-14T03:20:26.074Z,14.65
2023-05-14T03:22:54.660Z,12.05
2023-05-14T03:25:22.117Z,13.65
2023-05-14T03:27:49.742Z,10.27
2023-05-14T03:30:17.399Z,11.15
2023-05-14T03:32:45.631Z,11.18
2023-05-14T03:35:13.176Z,12.95
2023-05-14T03:37:40.717Z,12.88
2023-05-14T03:40:08.609Z,13.88
2023-05-14T03:42:37.075Z,13.27
2023-05-14T03:45:05.054Z,14.07
2023-05-14T03:47:32.816Z,11.95
2023-05-14T03:50:01.748Z,11.43
2023-05-14T03:52:29.282Z,12.95
2023-05-14T03:54:56.745Z,11.80
2023-05-14T03:57:24.375Z,13.40
2023-05-14T03:59:51.811Z,11.80
2023-05-14T04:02:20.232Z,10.65
2023-05-14T04:04:48.186Z,12.40
2023-05-14T04:07:19.300Z,10.95
2023-05-14T04:09:47.557Z,13.20
2023-05-14T04:12:15.035Z,12.35
2023-05-14T04:14:42.841Z,11.80
2023-05-14T04:17:10.327Z,10.13
2023-05-14T04:19:37.757Z,12.38
2023-05-14T04:22:05.841Z,14.10
2023-05-14T04:24:33.259Z,12.38
2023-05-14T04:27:00.916Z,11.23
2023-05-14T04:29:28.356Z,11.25
2023-05-14T04:31:56.268Z,12.15
2023-05-14T04:34:23.826Z,10.93
2023-05-14T04:36:52.046Z,12.60
2023-05-14T04:39:19.554Z,10.50
2023-05-14T04:41:47.092Z,11.15
2023-05-14T04:44:14.562Z,9.80
2023-05-14T04:46:42.385Z,9.30
2023-05-14T04:49:09.900Z,9.23
2023-05-14T04:51:37.432Z,8.98
2023-05-14T04:54:05.088Z,8.68
2023-05-14T04:56:32.542Z,10.73
2023-05-14T04:59:00.111Z,11.40
2023-05-14T05:01:27.707Z,9.27
2023-05-14T05:03:55.513Z,9.60
2023-05-14T05:06:23.103Z,9.77
2023-05-14T05:08:50.586Z,11.07
2023-05-14T05:11:18.141Z,10.57
2023-05-14T05:13:45.635Z,10.48
2023-05-14T05:16:13.152Z,9.95
2023-05-14T05:18:40.734Z,11.55
2023-05-14T05:21:08.229Z,9.63
2023-05-14T05:23:35.817Z,11.63
2023-05-14T05:26:03.388Z,11.05
2023-05-14T05:28:30.870Z,10.23
2023-05-14T05:30:58.457Z,11.10
2023-05-14T05:33:25.988Z,13.40
2023-05-14T05:35:53.421Z,13.35
2023-05-14T05:38:20.958Z,11.55
2023-05-14T05:40:48.540Z,11.23
2023-05-14T05:43:16.291Z,14.45
2023-05-14T05:45:46.030Z,16.48
2023-05-14T05:48:13.630Z,13.30
2023-05-14T05:50:41.246Z,14.10
2023-05-14T05:53:08.688Z,12.77
2023-05-14T05:55:36.323Z,13.30
2023-05-14T05:58:03.797Z,13.35
2023-05-14T06:00:31.636Z,11.60
2023-05-14T06:02:59.195Z,10.45
2023-05-14T06:05:26.808Z,11.98
2023-05-14T06:07:54.517Z,12.88
2023-05-14T06:10:22.289Z,12.75
2023-05-14T06:12:50.083Z,10.95
2023-05-14T06:15:17.666Z,10.95
2023-05-14T06:17:45.234Z,12.18
2023-05-14T06:20:13.122Z,9.18
2023-05-14T06:22:40.739Z,10.23
2023-05-14T06:25:08.661Z,10.48
2023-05-14T06:27:36.169Z,9.68
2023-05-14T06:30:04.021Z,10.40
2023-05-14T06:32:31.578Z,10.27
2023-05-14T06:34:59.110Z,9.00
2023-05-14T06:37:26.781Z,9.93
2023-05-14T06:39:55.721Z,11.30
2023-05-14T06:42:24.780Z,10.48
2023-05-14T06:44:52.291Z,12.40
2023-05-14T06:47:19.866Z,11.13
2023-05-14T06:49:47.333Z,15.18
2023-05-14T06:52:14.762Z,11.18
2023-05-14T06:54:42.230Z,12.05
2023-05-14T06:57:09.683Z,10.85
2023-05-14T06:59:37.150Z,10.55
2023-05-14T07:02:04.734Z,8.70
2023-05-14T07:04:32.282Z,10.18
2023-05-14T07:06:59.929Z,10.25
2023-05-14T07:09:27.403Z,11.88
2023-05-14T07:11:54.804Z,9.23
2023-05-14T07:14:22.427Z,9.70
2023-05-14T07:16:49.989Z,11.68
2023-05-14T07:19:17.492Z,11.73
2023-05-14T07:21:45.063Z,11.65
2023-05-14T07:24:12.610Z,10.57
2023-05-14T07:26:40.320Z,11.23
2023-05-14T07:29:08.236Z,9.70
2023-05-14T07:31:36.447Z,9.18
2023-05-14T07:34:05.214Z,10.55
2023-05-14T07:36:32.827Z,12.55
2023-05-14T07:39:00.747Z,8.52
2023-05-14T07:41:28.160Z,8.60
2023-05-14T07:43:55.784Z,8.65
2023-05-14T07:46:24.037Z,9.93
2023-05-14T07:48:51.808Z,8.07
2023-05-14T07:51:19.298Z,9.40
2023-05-14T07:53:46.760Z,10.63
2023-05-14T07:56:14.282Z,10.32
2023-05-14T07:58:41.793Z,10.15
2023-05-14T08:01:09.337Z,8.15
2023-05-14T08:03:36.870Z,6.53
2023-05-14T08:06:04.772Z,6.45
2023-05-14T08:08:32.540Z,5.13
2023-05-14T08:11:00.192Z,6.15
2023-05-14T08:17:16.019Z,6.50
2023-05-14T08:19:43.877Z,6.57
2023-05-14T08:22:11.420Z,6.35
2023-05-14T08:24:39.362Z,5.80
2023-05-14T08:27:07.322Z,7.60
2023-05-14T08:29:34.913Z,7.88
2023-05-14T08:32:11.712Z,6.53
2023-05-14T08:34:47.172Z,5.15
2023-05-14T08:37:14.638Z,5.80
2023-05-14T08:39:42.064Z,10.02
2023-05-14T08:42:13.107Z,6.65
2023-05-14T08:44:52.258Z,6.80
2023-05-14T08:47:22.347Z,6.28
2023-05-14T08:49:58.523Z,6.28
2023-05-14T08:52:26.176Z,6.22
2023-05-14T08:54:56.302Z,7.43
2023-05-14T08:57:26.819Z,6.18
2023-05-14T08:59:54.472Z,6.88
2023-05-14T09:02:29.864Z,8.15
2023-05-14T09:05:02.239Z,7.50
2023-05-14T09:07:29.960Z,5.97
2023-05-14T09:09:57.423Z,6.93
2023-05-14T09:12:24.998Z,6.57
2023-05-14T09:14:52.576Z,6.38
2023-05-14T09:17:20.884Z,5.35
2023-05-14T09:19:49.418Z,4.22
2023-05-14T09:22:18.364Z,6.07
2023-05-14T09:24:46.852Z,5.82
2023-05-14T09:27:20.907Z,4.30
2023-05-14T09:29:48.836Z,9.02
2023-05-14T09:32:16.320Z,4.82
2023-05-14T09:34:43.903Z,8.38
2023-05-14T09:37:11.370Z,4.43
2023-05-14T09:39:39.261Z,5.43
2023-05-14T09:42:07.078Z,6.43
2023-05-14T09:44:36.379Z,5.22
2023-05-14T09:47:04.514Z,5.70
2023-05-14T09:49:31.921Z,3.50
2023-05-14T09:51:59.493Z,6.22
2023-05-14T09:54:27.489Z,4.35
2023-05-14T09:56:55.889Z,4.25
2023-05-14T09:59:23.500Z,4.60
2023-05-14T10:01:52.590Z,4.82
2023-05-14T10:04:22.299Z,5.47
2023-05-14T10:06:53.259Z,4.22
2023-05-14T10:09:23.329Z,14.93
2023-05-14T10:11:56.779Z,5.10
2023-05-14T10:14:33.712Z,4.78
2023-05-14T10:17:03.182Z,4.97
2023-05-14T10:19:35.367Z,3.67
2023-05-14T10:22:11.402Z,4.25
2023-05-14T10:24:39.509Z,7.68
2023-05-14T10:27:07.215Z,4.15
2023-05-14T10:29:36.585Z,32.35
2023-05-14T10:32:09.079Z,6.22
2023-05-14T10:34:46.206Z,4.32
2023-05-14T10:37:26.967Z,6.18
2023-05-14T10:39:58.997Z,4.32
2023-05-14T10:42:29.098Z,5.18
2023-05-14T10:44:59.003Z,4.38
2023-05-14T10:47:27.129Z,4.32
2023-05-14T10:49:56.951Z,3.72
2023-05-14T10:52:25.147Z,4.13
2023-05-14T10:54:56.499Z,8.10
2023-05-14T10:57:27.656Z,4.55
2023-05-14T11:00:02.725Z,4.30
2023-05-14T11:02:37.087Z,5.35
2023-05-14T11:05:08.321Z,4.45
2023-05-14T11:07:38.099Z,7.00
2023-05-14T11:10:14.247Z,4.88
2023-05-14T11:12:44.142Z,5.20
2023-05-14T11:15:22.924Z,5.43
2023-05-14T11:17:51.725Z,6.13
2023-05-14T11:20:20.632Z,5.95
2023-05-14T11:22:49.314Z,4.38
2023-05-14T11:25:18.492Z,6.90
2023-05-14T11:27:47.663Z,4.72
2023-05-14T11:30:22.031Z,5.80
2023-05-14T11:32:50.657Z,4.35
2023-05-14T11:35:18.674Z,4.97
2023-05-14T11:37:52.795Z,6.22
2023-05-14T11:40:20.714Z,4.95
2023-05-14T11:42:51.580Z,4.80
2023-05-14T11:45:26.709Z,3.88
2023-05-14T11:47:55.035Z,4.53
2023-05-14T11:50:23.410Z,5.53
2023-05-14T11:52:51.372Z,4.38
2023-05-14T11:55:18.894Z,3.92
2023-05-14T11:57:46.543Z,9.20
2023-05-14T12:00:16.955Z,4.07
2023-05-14T12:02:44.671Z,4.20
2023-05-14T12:05:13.514Z,4.53
2023-05-14T12:07:44.423Z,4.65
2023-05-14T12:10:12.739Z,4.40
2023-05-14T12:12:40.241Z,4.25
2023-05-14T12:15:13.116Z,22.55
2023-05-14T12:17:41.337Z,7.53
2023-05-14T12:20:11.190Z,3.40
2023-05-14T12:22:39.156Z,3.30
2023-05-14T12:25:13.559Z,4.00
2023-05-14T12:27:44.858Z,5.47
2023-05-14T12:32:48.851Z,5.30
2023-05-14T12:35:16.670Z,6.35
2023-05-14T12:37:44.102Z,5.70
2023-05-14T12:40:11.962Z,4.78
2023-05-14T12:42:39.434Z,4.18
2023-05-14T12:45:08.764Z,4.60
2023-05-14T12:47:37.287Z,5.97
2023-05-14T12:50:06.077Z,5.75
2023-05-14T12:52:38.472Z,4.00
2023-05-14T12:55:09.105Z,4.88
2023-05-14T12:57:39.503Z,5.05
2023-05-14T13:00:12.222Z,4.05
2023-05-14T13:02:43.717Z,4.75
2023-05-14T13:05:12.434Z,3.95
2023-05-14T13:07:40.051Z,4.28
2023-05-14T13:10:08.365Z,3.60
2023-05-14T13:12:35.983Z,5.30
2023-05-14T13:15:03.598Z,5.53
2023-05-14T13:17:31.517Z,3.85
2023-05-14T13:19:59.077Z,3.70
2023-05-14T13:22:26.547Z,3.83
2023-05-14T13:24:54.288Z,4.82
2023-05-14T13:27:21.654Z,6.18
2023-05-14T13:29:49.196Z,4.18
2023-05-14T13:32:16.597Z,5.40
2023-05-14T13:34:44.240Z,5.90
2023-05-14T13:37:11.760Z,5.30
2023-05-14T13:39:41.011Z,3.72
2023-05-14T13:42:08.682Z,6.32
2023-05-14T13:44:36.362Z,3.92
2023-05-14T13:47:04.479Z,4.00
2023-05-14T13:49:31.945Z,6.80
2023-05-14T13:51:59.376Z,3.65
2023-05-14T13:54:26.937Z,7.35
2023-05-14T13:56:56.700Z,6.20
2023-05-14T13:59:24.219Z,3.97
2023-05-14T14:01:51.871Z,5.20
2023-05-14T14:04:20.126Z,4.82
2023-05-14T14:06:47.668Z,4.10
2023-05-14T14:09:15.199Z,4.50
2023-05-14T14:11:42.739Z,3.30
2023-05-14T14:14:10.210Z,3.72
2023-05-14T14:16:37.953Z,4.68
2023-05-14T14:19:05.640Z,5.10
2023-05-14T14:21:34.332Z,7.50
2023-05-14T14:24:02.504Z,4.82
2023-05-14T14:26:29.967Z,4.53
2023-05-14T14:28:57.451Z,4.53
2023-05-14T14:31:25.132Z,3.85
2023-05-14T14:33:52.687Z,3.92
2023-05-14T14:36:20.118Z,3.75
2023-05-14T14:38:47.580Z,3.90
2023-05-14T14:41:15.090Z,4.25
2023-05-14T14:43:43.681Z,4.93
2023-05-14T14:46:11.280Z,4.93
2023-05-14T14:48:38.873Z,3.28
2023-05-14T14:51:07.908Z,4.13
2023-05-14T14:53:37.176Z,5.47
2023-05-14T14:56:05.045Z,3.70
2023-05-14T14:58:32.979Z,8.82
2023-05-14T15:01:01.444Z,3.85
2023-05-14T15:03:29.372Z,5.18
2023-05-14T15:05:57.153Z,4.30
2023-05-14T15:08:27.114Z,3.85
2023-05-14T15:10:57.927Z,3.78
2023-05-14T15:13:27.028Z,4.72
2023-05-14T15:15:54.585Z,5.53
2023-05-14T15:18:22.112Z,3.65
2023-05-14T15:20:49.811Z,5.15
2023-05-14T15:23:17.362Z,3.88
2023-05-14T15:25:45.143Z,4.35
2023-05-14T15:28:12.634Z,5.95
2023-05-14T15:30:40.130Z,6.18
2023-05-14T15:33:08.753Z,5.95
2023-05-14T15:35:36.862Z,4.20
2023-05-14T15:38:04.348Z,2.20
2023-05-14T15:40:33.256Z,2.90
2023-05-14T15:43:00.736Z,2.60
2023-05-14T15:45:28.581Z,2.95
2023-05-14T15:47:56.103Z,1.83
2023-05-14T15:50:23.875Z,1.75
2023-05-14T15:52:51.491Z,2.17
2023-05-14T15:55:19.112Z,2.78
2023-05-14T15:57:46.641Z,1.58
2023-05-14T16:00:14.527Z,3.83
2023-05-14T16:02:42.092Z,1.50
2023-05-14T16:05:09.890Z,3.30
2023-05-14T16:07:37.682Z,5.05
2023-05-14T16:10:06.574Z,2.97
2023-05-14T16:12:34.152Z,3.47
2023-05-14T16:15:01.670Z,4.88
2023-05-14T16:17:30.629Z,4.30
2023-05-14T16:19:59.152Z,4.15
2023-05-14T16:22:27.151Z,6.65
2023-05-14T16:24:55.003Z,4.68
2023-05-14T16:27:22.673Z,5.72
2023-05-14T16:29:50.195Z,5.38
2023-05-14T16:32:18.010Z,3.53
2023-05-14T16:34:49.770Z,4.65
2023-05-14T16:37:20.007Z,4.28
2023-05-14T16:39:48.464Z,5.07
2023-05-14T16:42:16.625Z,6.18
2023-05-14T16:44:44.195Z,4.85
2023-05-14T16:47:11.656Z,5.18
2023-05-14T16:49:39.133Z,5.45
2023-05-14T16:52:07.066Z,4.47
2023-05-14T16:54:34.464Z,3.22
2023-05-14T16:57:02.018Z,4.65
2023-05-14T16:59:29.553Z,5.82
2023-05-14T17:01:57.244Z,4.13
2023-05-14T17:04:26.712Z,7.35
2023-05-14T17:06:54.612Z,4.57
2023-05-14T17:09:22.177Z,4.53
2023-05-14T17:11:49.644Z,7.63
2023-05-14T17:14:17.185Z,5.03
2023-05-14T17:16:44.736Z,4.75
2023-05-14T17:19:12.425Z,4.90
2023-05-14T17:21:40.164Z,4.10
2023-05-14T17:24:07.795Z,3.70
2023-05-14T17:26:35.366Z,8.68
2023-05-14T17:29:02.936Z,3.55
2023-05-14T17:31:30.544Z,6.00
2023-05-14T17:33:58.928Z,6.72
2023-05-14T17:36:28.650Z,7.78
2023-05-14T17:38:56.190Z,4.57
2023-05-14T17:41:23.748Z,3.90
2023-05-14T17:43:52.676Z,3.03
2023-05-14T17:46:20.219Z,3.55
2023-05-14T17:48:47.707Z,3.35
2023-05-14T17:51:15.212Z,5.32
2023-05-14T17:53:42.695Z,4.93
2023-05-14T17:56:10.178Z,3.67
2023-05-14T17:58:37.623Z,3.28
2023-05-14T18:01:06.235Z,3.70
2023-05-14T18:03:34.005Z,4.82
2023-05-14T18:06:01.694Z,4.43
2023-05-14T18:08:29.129Z,6.55
2023-05-14T18:10:56.742Z,5.97
2023-05-14T18:13:24.239Z,4.30
2023-05-14T18:15:54.728Z,3.83
2023-05-14T18:18:24.084Z,4.20
2023-05-14T18:20:52.107Z,4.45
2023-05-14T18:23:19.619Z,5.72
2023-05-14T18:25:51.025Z,5.45
2023-05-14T18:28:19.209Z,5.10
2023-05-14T18:30:46.825Z,8.73
2023-05-14T18:33:14.353Z,3.40
2023-05-14T18:35:43.664Z,3.72
2023-05-14T18:38:12.563Z,4.05
2023-05-14T18:40:40.001Z,5.70
2023-05-14T18:43:07.742Z,3.60
2023-05-14T18:45:35.334Z,3.15
2023-05-14T18:48:02.888Z,3.95
2023-05-14T18:50:30.845Z,4.28
2023-05-14T18:52:58.402Z,3.72
2023-05-14T18:55:26.169Z,5.22
2023-05-14T18:57:54.021Z,4.60
2023-05-14T19:00:21.509Z,4.88
2023-05-14T19:02:49.129Z,5.75
2023-05-14T19:05:16.772Z,6.30
2023-05-14T19:07:44.282Z,4.00
2023-05-14T19:10:11.856Z,4.75
2023-05-14T19:12:39.295Z,5.65
2023-05-14T19:15:07.667Z,4.13
2023-05-14T19:17:35.320Z,3.80
2023-05-14T19:20:03.792Z,4.38
2023-05-14T19:22:31.226Z,3.90
2023-05-14T19:24:58.742Z,2.83
2023-05-14T19:27:26.773Z,3.42
2023-05-14T19:29:54.389Z,5.57
2023-05-14T19:32:21.974Z,4.88
2023-05-14T19:34:49.598Z,3.83
2023-05-14T19:37:19.005Z,3.10
2023-05-14T19:39:46.423Z,4.47
2023-05-14T19:42:13.928Z,4.15
2023-05-14T19:44:41.341Z,2.88
2023-05-14T19:47:09.281Z,6.45
2023-05-14T19:49:36.861Z,5.03
2023-05-14T19:52:04.607Z,4.10
2023-05-14T19:54:32.070Z,3.00
2023-05-14T19:56:59.609Z,3.25
2023-05-14T19:59:27.071Z,2.70
2023-05-14T20:01:54.912Z,3.95
2023-05-14T20:04:22.427Z,4.30
2023-05-14T20:06:49.931Z,2.75
2023-05-14T20:09:17.554Z,2.33
2023-05-14T20:11:45.083Z,3.85
2023-05-14T20:14:12.536Z,2.97
2023-05-14T20:16:40.157Z,2.17
2023-05-14T20:19:08.170Z,2.30
2023-05-14T20:21:35.795Z,2.75
2023-05-14T20:24:03.519Z,2.40
2023-05-14T20:26:31.266Z,2.13
2023-05-14T20:28:58.601Z,2.40
2023-05-14T20:31:26.074Z,3.45
2023-05-14T20:33:53.577Z,2.30
2023-05-14T20:36:21.112Z,4.28
2023-05-14T20:38:48.789Z,3.75
2023-05-14T20:41:16.320Z,4.18
2023-05-14T20:43:43.793Z,3.38
2023-05-14T20:46:11.315Z,6.65
2023-05-14T20:48:38.836Z,2.78
2023-05-14T20:51:06.762Z,2.33
2023-05-14T20:53:34.456Z,1.85
2023-05-14T20:56:01.954Z,2.22
2023-05-14T20:58:29.397Z,1.80
2023-05-14T21:00:58.003Z,2.42
2023-05-14T21:03:26.891Z,2.17
2023-05-14T21:05:56.211Z,2.38
2023-05-14T21:08:23.682Z,3.65
2023-05-14T21:10:51.195Z,3.38
2023-05-14T21:13:18.694Z,1.98
2023-05-14T21:15:46.358Z,2.33
2023-05-14T21:18:13.866Z,2.72
2023-05-14T21:20:41.375Z,3.05
2023-05-14T21:23:09.292Z,2.20
2023-05-14T21:25:36.914Z,3.08
2023-05-14T21:28:04.507Z,2.17
2023-05-14T21:30:31.929Z,3.17
2023-05-14T21:32:59.437Z,3.10
2023-05-14T21:35:27.293Z,1.88
2023-05-14T21:37:54.880Z,2.22
2023-05-14T21:40:22.437Z,2.25
2023-05-14T21:42:50.033Z,2.33
2023-05-14T21:45:17.559Z,1.92
2023-05-14T21:47:45.112Z,1.55
2023-05-14T21:50:13.881Z,4.00
2023-05-14T21:52:41.412Z,4.85
2023-05-14T21:55:09.171Z,1.90
2023-05-14T21:57:36.690Z,4.07
2023-05-14T22:00:08.328Z,3.20
2023-05-14T22:02:35.853Z,2.20
2023-05-14T22:05:03.370Z,3.13
2023-05-14T22:07:32.886Z,2.00
2023-05-14T22:10:00.386Z,2.97
2023-05-14T22:12:27.832Z,2.47
2023-05-14T22:14:55.318Z,2.63
2023-05-14T22:17:22.825Z,2.50
2023-05-14T22:19:50.416Z,2.40
2023-05-14T22:22:17.824Z,3.90
2023-05-14T22:24:45.333Z,2.15
2023-05-14T22:27:12.812Z,2.75
2023-05-14T22:29:40.415Z,2.13
2023-05-14T22:32:08.714Z,2.78
2023-05-14T22:34:39.185Z,2.30
2023-05-14T22:37:06.757Z,3.58
2023-05-14T22:39:34.181Z,1.70
2023-05-14T22:42:01.751Z,4.05
2023-05-14T22:44:30.042Z,3.28
2023-05-14T22:46:57.930Z,2.08
2023-05-14T22:49:25.573Z,3.05
2023-05-14T22:51:55.883Z,2.65
2023-05-14T22:54:23.378Z,3.65
2023-05-14T22:56:51.530Z,2.75
2023-05-14T22:59:20.163Z,4.20
2023-05-14T23:01:48.498Z,2.60
2023-05-14T23:04:16.119Z,3.83
2023-05-14T23:06:43.670Z,1.95
2023-05-14T23:09:11.172Z,2.90
2023-05-14T23:11:38.668Z,2.33
2023-05-14T23:14:06.213Z,2.33
2023-05-14T23:16:33.682Z,3.17
2023-05-14T23:19:01.340Z,1.98
2023-05-14T23:21:28.955Z,2.05
2023-05-14T23:23:56.418Z,2.20
2023-05-14T23:26:23.881Z,1.67
2023-05-14T23:28:51.951Z,2.70
2023-05-14T23:31:19.437Z,2.95
2023-05-14T23:33:46.962Z,4.00
2023-05-14T23:36:14.621Z,2.80
2023-05-14T23:38:42.267Z,2.15
2023-05-14T23:41:09.842Z,2.90
2023-05-14T23:43:37.320Z,3.05
2023-05-14T23:46:04.996Z,2.25
2023-05-14T23:48:32.921Z,3.15
2023-05-14T23:51:00.418Z,2.38
2023-05-14T23:53:27.922Z,4.13
2023-05-14T23:55:55.454Z,3.22
2023-05-14T23:58:23.087Z,2.75
